Time;durP1;ratioP1;P1;durP2;ratioP2;P2;SDS_P1;SDS_P2;PMS_P1;PMS_P2;Temp;Humidity;BMP_temperature;BMP_pressure;BME280_temperature;BME280_humidity;BME280_pressure;Samples;Min_cycle;Max_cycle;Signal;HPM_P1;HPM_P2
2022/11/19 00:00:24;;;;;;;2.95;2.00;;;;;;;22.98;46.35;93908.97;5015932;28;20034;-61
2022/11/19 00:02:53;;;;;;;3.35;1.92;;;;;;;22.95;46.12;93910.03;4997808;28;20049;-60
2022/11/19 00:05:18;;;;;;;3.30;2.20;;;;;;;22.94;46.00;93907.84;4995111;28;20540;-63
2022/11/19 00:07:44;;;;;;;3.13;2.22;;;;;;;22.90;45.97;93897.28;5014559;28;20041;-61
2022/11/19 00:10:09;;;;;;;4.00;2.45;;;;;;;22.77;46.12;93890.44;5011924;28;20052;-61
2022/11/19 00:12:53;;;;;;;2.80;1.80;;;;;;;22.78;46.59;93883.72;4979576;28;20048;-62
2022/11/19 00:15:18;;;;;;;2.47;1.85;;;;;;;22.75;46.60;93896.44;4998091;28;20486;-61
2022/11/19 00:17:44;;;;;;;3.38;2.10;;;;;;;22.90;46.57;93924.50;4980709;28;20127;-61
2022/11/19 00:20:09;;;;;;;3.50;1.90;;;;;;;21.65;46.46;93744.53;5015630;28;20053;-60
2022/11/19 00:22:35;;;;;;;3.40;1.90;;;;;;;22.86;46.31;93922.66;4996772;28;20084;-62
2022/11/19 00:25:00;;;;;;;3.30;1.70;;;;;;;22.54;46.31;93873.19;4996377;28;20063;-61
2022/11/19 00:27:26;;;;;;;3.30;1.80;;;;;;;22.61;46.34;93888.84;5014249;28;20025;-60
2022/11/19 00:29:51;;;;;;;2.63;1.80;;;;;;;22.82;46.27;93912.06;4975639;28;20046;-61
2022/11/19 00:32:17;;;;;;;3.95;2.30;;;;;;;22.85;46.50;93926.63;5013925;28;20053;-61
2022/11/19 00:34:42;;;;;;;3.30;2.03;;;;;;;22.73;46.56;93909.09;5014529;28;20048;-58
2022/11/19 00:37:08;;;;;;;3.08;1.83;;;;;;;22.81;46.57;93904.44;4995592;28;20095;-64
2022/11/19 00:39:33;;;;;;;3.58;1.58;;;;;;;21.61;46.34;93733.25;4996274;28;20306;-65
2022/11/19 00:41:59;;;;;;;3.10;1.60;;;;;;;22.68;46.67;93923.56;5015062;28;20029;-61
2022/11/19 00:44:24;;;;;;;2.90;1.90;;;;;;;22.78;46.77;93927.28;4977298;28;20049;-62
2022/11/19 00:46:50;;;;;;;2.63;1.88;;;;;;;22.80;46.50;93928.22;4980297;28;20045;-60
2022/11/19 00:49:15;;;;;;;2.97;1.90;;;;;;;22.78;46.80;93908.22;5015393;28;20034;-64
2022/11/19 00:51:41;;;;;;;2.63;1.70;;;;;;;22.75;46.35;93933.78;5013937;28;20052;-62
2022/11/19 00:54:06;;;;;;;2.53;1.77;;;;;;;21.52;46.33;93730.97;5015961;28;20479;-62
2022/11/19 00:56:32;;;;;;;2.97;1.80;;;;;;;21.78;46.65;93809.66;4996016;28;20053;-62
2022/11/19 00:58:57;;;;;;;3.53;1.52;;;;;;;22.68;46.72;93912.69;5015093;28;20322;-60
2022/11/19 01:01:23;;;;;;;3.65;1.75;;;;;;;22.69;46.95;93905.97;4958221;28;20112;-61
2022/11/19 01:03:49;;;;;;;2.92;1.70;;;;;;;22.70;46.79;93915.59;5014293;28;20072;-62
2022/11/19 01:06:16;;;;;;;2.33;1.77;;;;;;;22.68;46.77;93945.34;4981700;28;20026;-63
2022/11/19 01:08:41;;;;;;;2.95;1.95;;;;;;;22.68;46.58;93918.13;4997527;28;20045;-62
2022/11/19 01:11:11;;;;;;;2.63;1.67;;;;;;;22.67;46.59;93924.81;5013804;28;20037;-61
2022/11/19 01:13:37;;;;;;;3.65;1.75;;;;;;;22.67;46.65;93922.09;4979941;28;20502;-63
2022/11/19 01:16:10;;;;;;;3.03;1.55;;;;;;;22.64;47.01;93923.16;4964463;28;20041;-62
2022/11/19 01:18:35;;;;;;;2.55;1.60;;;;;;;21.65;46.56;93777.13;4995693;28;20167;-61
2022/11/19 01:21:01;;;;;;;1.83;1.42;;;;;;;22.65;47.06;93908.31;4979825;28;20136;-61
2022/11/19 01:23:27;;;;;;;2.83;1.77;;;;;;;22.64;46.86;93923.16;4994738;28;20045;-60
2022/11/19 01:25:53;;;;;;;2.40;1.70;;;;;;;22.42;46.87;93888.31;5013862;28;20553;-63
2022/11/19 01:28:18;;;;;;;2.83;1.70;;;;;;;20.93;46.91;93670.56;4996900;28;20081;-60
2022/11/19 01:30:44;;;;;;;2.33;1.75;;;;;;;22.36;46.79;93893.16;4995990;28;20099;-62
2022/11/19 01:33:10;;;;;;;2.58;1.55;;;;;;;22.35;46.93;93894.41;4980778;28;20037;-62
2022/11/19 01:35:35;;;;;;;2.40;1.90;;;;;;;22.57;47.05;93930.00;5009851;28;20060;-60
2022/11/19 01:38:02;;;;;;;3.13;1.40;;;;;;;22.27;47.10;93873.81;4979382;28;20072;-61
2022/11/19 01:40:27;;;;;;;2.60;1.60;;;;;;;22.40;47.26;93899.00;4996781;28;20537;-60
2022/11/19 01:42:53;;;;;;;2.75;1.40;;;;;;;22.58;47.17;93928.72;5015101;28;20048;-61
2022/11/19 01:45:35;;;;;;;2.53;1.60;;;;;;;22.57;46.94;93940.13;4968095;28;20029;-61
2022/11/19 01:48:11;;;;;;;2.42;1.60;;;;;;;22.36;46.96;93914.91;4995927;28;20368;-62
2022/11/19 01:50:43;;;;;;;2.60;1.50;;;;;;;21.17;46.86;93733.47;4995992;28;20287;-63
2022/11/19 01:53:08;;;;;;;2.50;1.60;;;;;;;22.53;47.01;93961.50;4978013;28;20128;-61
2022/11/19 01:55:34;;;;;;;2.30;1.58;;;;;;;22.26;47.17;93889.44;4996332;28;20052;-62
2022/11/19 01:58:00;;;;;;;1.90;1.27;;;;;;;22.54;46.83;93930.31;4980244;28;20084;-60
2022/11/19 02:00:26;;;;;;;2.60;1.58;;;;;;;22.53;46.95;93929.59;4979528;28;20499;-62
2022/11/19 02:02:51;;;;;;;2.90;1.60;;;;;;;22.48;46.89;93921.53;4981012;28;20057;-63
2022/11/19 02:05:17;;;;;;;2.20;1.30;;;;;;;21.44;47.08;93768.16;5014659;28;20502;-61
2022/11/19 02:07:46;;;;;;;2.72;1.65;;;;;;;22.53;46.97;93999.59;4978813;28;20050;-61
2022/11/19 02:10:11;;;;;;;2.28;1.40;;;;;;;22.49;47.16;93942.06;4977539;28;20049;-61
2022/11/19 02:13:04;;;;;;;3.22;1.60;;;;;;;22.51;47.20;93937.56;4980580;28;20021;-63
2022/11/19 02:15:35;;;;;;;2.28;1.40;;;;;;;22.49;47.20;93937.34;4995331;28;20490;-61
2022/11/19 02:18:16;;;;;;;1.77;1.42;;;;;;;22.34;47.06;93914.69;5015806;28;20156;-62
2022/11/19 02:20:48;;;;;;;2.40;1.60;;;;;;;22.19;47.14;93900.91;4996363;28;20041;-62
2022/11/19 02:23:33;;;;;;;2.17;1.42;;;;;;;22.47;47.13;93930.97;5006384;28;20136;-63
2022/11/19 02:26:26;;;;;;;2.08;1.25;;;;;;;22.49;47.26;93955.66;4980020;28;20107;-60
2022/11/19 02:29:05;;;;;;;2.40;1.40;;;;;;;22.48;47.40;93967.78;4998550;28;20145;-63
2022/11/19 02:31:39;;;;;;;2.08;1.20;;;;;;;22.45;47.30;93960.69;4967520;28;20123;-62
2022/11/19 02:34:11;;;;;;;2.15;1.40;;;;;;;22.47;46.99;93969.06;5018090;28;20111;-63
2022/11/19 02:36:41;;;;;;;1.92;1.42;;;;;;;22.43;47.43;93969.41;4963134;28;20034;-63
2022/11/19 02:39:24;;;;;;;2.13;1.48;;;;;;;22.30;47.17;93995.91;4977022;28;20034;-63
2022/11/19 02:41:54;;;;;;;2.80;1.42;;;;;;;22.45;46.99;93974.28;4971031;28;20045;-63
2022/11/19 02:47:19;;;;;;;2.03;1.45;;;;;;;22.44;47.50;93991.88;5019520;28;19924;-62
2022/11/19 02:49:45;;;;;;;2.33;1.45;;;;;;;22.43;47.25;93991.16;4984483;28;20056;-61
2022/11/19 02:52:11;;;;;;;1.98;1.20;;;;;;;22.42;47.31;93988.97;4998189;28;20075;-61
2022/11/19 02:54:36;;;;;;;1.95;1.20;;;;;;;22.42;46.86;94054.25;4997836;28;20049;-62
2022/11/19 02:57:02;;;;;;;2.60;1.40;;;;;;;21.70;47.41;93904.72;5016639;28;20036;-61
2022/11/19 03:05:14;;;;;;;2.55;1.30;;;;;;;22.15;47.71;93998.41;4984107;28;20076;-63
2022/11/19 03:07:40;;;;;;;2.42;1.35;;;;;;;22.37;47.35;94036.03;4998978;28;20072;-63
2022/11/19 03:10:06;;;;;;;2.38;1.40;;;;;;;22.36;47.68;94045.47;5015037;28;20061;-61
2022/11/19 03:12:54;;;;;;;1.52;1.00;;;;;;;22.12;47.20;93994.03;4998902;28;20456;-61
2022/11/19 03:18:35;;;;;;;1.60;1.05;;;;;;;22.34;47.45;94053.41;4991170;28;20132;-63
2022/11/19 03:21:28;;;;;;;1.92;1.20;;;;;;;21.94;47.49;93989.44;5023875;23;20104;-58
2022/11/19 03:23:56;;;;;;;1.98;1.20;;;;;;;21.48;47.39;93931.56;5002149;28;20045;-66
2022/11/19 03:26:34;;;;;;;1.65;1.20;;;;;;;22.31;47.37;94037.41;5016717;28;20033;-63
2022/11/19 03:29:02;;;;;;;1.73;1.25;;;;;;;22.31;47.49;94068.06;5017111;28;20077;-64
2022/11/19 03:31:27;;;;;;;1.77;1.13;;;;;;;22.16;47.75;94027.03;4999335;28;20068;-66
2022/11/19 03:33:55;;;;;;;1.85;1.30;;;;;;;22.04;47.65;94052.97;4979730;28;20494;-63
2022/11/19 03:36:37;;;;;;;1.73;1.20;;;;;;;22.27;47.73;94059.50;4982884;28;20032;-64
2022/11/19 03:39:07;;;;;;;1.92;1.30;;;;;;;21.98;47.73;94006.16;4984922;28;20054;-59
2022/11/19 03:41:33;;;;;;;2.45;1.30;;;;;;;22.26;47.57;94068.91;4948069;23;20048;-60
2022/11/19 03:44:05;;;;;;;1.70;1.10;;;;;;;22.25;47.63;94062.00;4954824;28;20057;-61
2022/11/19 03:46:31;;;;;;;2.38;1.20;;;;;;;21.65;47.56;93967.28;4931547;28;22041;-60
2022/11/19 03:48:56;;;;;;;1.90;1.00;;;;;;;22.25;47.58;94064.00;4931482;28;20065;-61
2022/11/19 03:51:40;;;;;;;1.70;1.05;;;;;;;22.24;47.74;94060.56;4932178;28;20033;-60
2022/11/19 03:54:06;;;;;;;1.95;1.20;;;;;;;22.22;47.74;94063.03;4934368;28;20523;-60
2022/11/19 03:56:31;;;;;;;1.90;1.20;;;;;;;22.18;47.78;94078.94;4952572;28;20053;-62
2022/11/19 03:58:57;;;;;;;1.70;1.00;;;;;;;22.26;47.54;94074.34;4914731;28;20521;-61
2022/11/19 04:01:23;;;;;;;1.75;1.20;;;;;;;22.25;47.63;94083.75;4949138;28;20064;-61
2022/11/19 04:06:33;;;;;;;2.25;1.00;;;;;;;22.21;47.83;94079.88;4949716;28;21980;-60
2022/11/19 04:08:59;;;;;;;1.98;1.00;;;;;;;22.14;47.76;94081.22;4952825;28;20838;-61
2022/11/19 04:11:24;;;;;;;2.83;1.10;;;;;;;21.37;49.14;94083.78;4952613;28;20052;-60
2022/11/19 04:13:50;;;;;;;3.60;1.20;;;;;;;20.79;49.10;93948.53;4933556;28;20107;-62
2022/11/19 04:16:16;;;;;;;1.73;1.10;;;;;;;22.00;48.93;94095.31;4952316;28;20095;-61
2022/11/19 04:18:41;;;;;;;2.22;1.40;;;;;;;22.11;48.20;94100.59;4953226;28;20041;-60
2022/11/19 04:21:07;;;;;;;1.70;1.08;;;;;;;22.21;48.08;94099.66;4956197;28;21676;-61
2022/11/19 04:23:32;;;;;;;2.83;1.10;;;;;;;22.15;47.70;94096.28;4933592;28;20721;-61
2022/11/19 04:25:58;;;;;;;3.20;0.98;;;;;;;22.46;47.27;94109.06;4952306;28;20069;-60
2022/11/19 04:28:24;;;;;;;1.45;0.90;;;;;;;22.56;47.08;94108.09;4948667;28;20821;-62
2022/11/19 04:30:49;;;;;;;1.42;1.08;;;;;;;22.45;47.01;94080.38;4936074;28;20053;-58
2022/11/19 04:33:15;;;;;;;1.80;0.95;;;;;;;21.85;46.88;93980.25;4943753;28;20033;-59
2022/11/19 04:35:43;;;;;;;2.08;0.73;;;;;;;22.82;46.45;94112.78;4946825;28;20947;-61
2022/11/19 04:38:09;;;;;;;1.83;1.00;;;;;;;22.88;46.59;94111.38;4909898;28;20053;-61
2022/11/19 04:40:34;;;;;;;2.20;1.05;;;;;;;22.98;46.03;94129.50;4927250;28;20652;-58
2022/11/19 04:43:00;;;;;;;1.95;0.90;;;;;;;23.10;46.03;94136.19;4950464;28;22017;-60
2022/11/19 04:45:25;;;;;;;1.35;0.65;;;;;;;22.92;46.12;94123.44;4952345;28;20127;-61
2022/11/19 04:47:51;;;;;;;1.52;0.98;;;;;;;22.99;45.96;94139.16;4953296;28;20049;-61
2022/11/19 04:50:16;;;;;;;2.03;1.20;;;;;;;23.27;45.44;94142.00;4935246;28;20539;-60
2022/11/19 04:52:42;;;;;;;1.65;0.80;;;;;;;23.37;45.08;94132.13;4947693;28;22488;-60
2022/11/19 04:55:09;;;;;;;2.40;0.90;;;;;;;23.40;45.14;94139.94;4946460;28;20048;-60
2022/11/19 04:57:35;;;;;;;1.30;0.77;;;;;;;23.52;44.97;94145.88;4946599;28;22212;-61
2022/11/19 05:00:01;;;;;;;1.60;1.02;;;;;;;23.60;45.03;94152.88;4914780;28;20049;-61
2022/11/19 05:02:26;;;;;;;1.42;0.80;;;;;;;23.58;44.71;94127.41;4948833;28;20049;-61
2022/11/19 05:04:51;;;;;;;1.48;0.82;;;;;;;23.66;44.62;94164.41;4922867;28;20057;-61
2022/11/19 05:07:17;;;;;;;1.40;1.00;;;;;;;23.57;44.54;94134.88;4919183;28;20385;-62
2022/11/19 05:09:42;;;;;;;1.88;0.90;;;;;;;23.81;44.18;94163.81;4949292;28;20160;-62
2022/11/19 05:12:08;;;;;;;2.42;0.70;;;;;;;23.89;44.02;94190.59;4949376;28;20033;-61
2022/11/19 05:14:37;;;;;;;1.10;0.70;;;;;;;23.81;43.94;94188.34;4947060;28;21208;-61
2022/11/19 05:17:03;;;;;;;1.70;1.02;;;;;;;23.92;43.84;94200.44;4946582;28;20500;-62
2022/11/19 05:19:28;;;;;;;1.35;0.85;;;;;;;23.92;43.99;94188.81;4947745;28;20494;-64
2022/11/19 05:21:54;;;;;;;1.98;0.77;;;;;;;24.20;43.71;94214.16;4946766;28;20176;-62
2022/11/19 05:24:19;;;;;;;1.40;0.73;;;;;;;24.31;43.10;94216.59;4947774;28;20039;-62
2022/11/19 05:26:45;;;;;;;1.55;0.85;;;;;;;24.37;43.51;94233.59;4946246;28;20372;-63
2022/11/19 05:29:10;;;;;;;2.00;0.73;;;;;;;24.06;43.75;94253.66;4953384;28;20061;-63
2022/11/19 05:31:36;;;;;;;1.55;0.90;;;;;;;23.95;43.85;94232.13;4948637;28;20516;-62
2022/11/19 05:34:01;;;;;;;1.48;0.80;;;;;;;24.10;43.52;94236.97;4931058;28;20162;-63
2022/11/19 05:36:27;;;;;;;1.45;0.80;;;;;;;24.05;44.28;94235.09;4953834;28;20102;-62
2022/11/19 05:38:52;;;;;;;1.08;0.55;;;;;;;24.02;44.19;94238.88;4952317;28;20324;-63
2022/11/19 05:41:19;;;;;;;1.80;0.70;;;;;;;24.04;44.17;94253.47;4955292;28;20041;-60
2022/11/19 05:43:44;;;;;;;2.70;0.80;;;;;;;24.10;44.12;94264.97;4954536;28;20049;-62
2022/11/19 05:46:10;;;;;;;0.90;0.55;;;;;;;24.27;43.90;94262.59;4954930;28;20613;-63
2022/11/19 05:48:36;;;;;;;1.95;0.93;;;;;;;24.19;43.31;94256.34;4954326;28;20052;-60
2022/11/19 05:51:01;;;;;;;1.38;0.77;;;;;;;23.52;43.10;94134.97;4955554;28;20130;-61
2022/11/19 05:53:27;;;;;;;1.65;0.70;;;;;;;24.17;43.81;94269.03;4956635;28;20057;-62
2022/11/19 05:55:53;;;;;;;1.25;0.70;;;;;;;24.15;43.31;94275.03;4952460;28;20052;-60
2022/11/19 05:58:20;;;;;;;1.48;0.70;;;;;;;24.35;43.34;94274.34;4950056;28;20053;-61
2022/11/19 06:00:45;;;;;;;5.13;0.80;;;;;;;24.79;42.90;94275.97;4948502;28;20300;-60
2022/11/19 06:03:11;;;;;;;1.83;0.63;;;;;;;24.60;42.87;94283.63;4946818;28;20037;-61
2022/11/19 06:05:36;;;;;;;2.85;0.77;;;;;;;24.65;42.75;94274.56;4953834;28;20124;-62
2022/11/19 06:08:02;;;;;;;3.47;0.80;;;;;;;24.57;42.95;94246.47;4935916;28;20049;-62
2022/11/19 06:10:27;;;;;;;2.10;0.52;;;;;;;24.70;42.51;94277.16;4954869;28;20053;-64
2022/11/19 06:12:53;;;;;;;1.27;0.70;;;;;;;24.93;41.98;94300.63;4953028;28;20342;-63
2022/11/19 06:15:19;;;;;;;0.85;0.60;;;;;;;24.89;42.35;94302.97;4956696;28;21096;-64
2022/11/19 06:17:45;;;;;;;1.33;0.70;;;;;;;24.77;42.30;94313.97;4954686;28;20320;-62
2022/11/19 06:20:11;;;;;;;1.40;0.70;;;;;;;24.72;42.87;94317.59;4959727;28;20172;-64
2022/11/19 06:22:38;;;;;;;0.93;0.55;;;;;;;24.79;42.71;94333.31;4954362;28;20271;-61
2022/11/19 06:25:04;;;;;;;1.67;0.70;;;;;;;24.88;42.16;94337.00;4957521;28;20331;-62
2022/11/19 06:27:30;;;;;;;2.05;0.60;;;;;;;25.11;41.83;94337.94;4961781;28;20841;-61
2022/11/19 06:29:56;;;;;;;1.10;0.63;;;;;;;25.17;41.68;94335.81;4959602;28;20045;-60
2022/11/19 06:32:21;;;;;;;1.30;0.80;;;;;;;24.63;41.36;94244.34;4933353;28;20267;-62
2022/11/19 06:34:47;;;;;;;1.02;0.60;;;;;;;24.99;41.65;94342.22;4959229;28;20075;-63
2022/11/19 06:37:13;;;;;;;2.40;0.77;;;;;;;24.87;42.42;94351.94;4957487;28;21110;-60
2022/11/19 06:39:39;;;;;;;1.40;0.70;;;;;;;24.84;42.54;94352.25;4955792;28;20054;-61
2022/11/19 06:44:49;;;;;;;1.85;0.90;;;;;;;24.93;42.19;94344.34;4961767;28;20161;-60
2022/11/19 06:47:14;;;;;;;1.25;0.70;;;;;;;25.08;42.07;94352.69;4962212;28;20057;-62
2022/11/19 06:49:40;;;;;;;2.13;0.90;;;;;;;24.81;42.19;94385.38;4962655;28;20387;-62
2022/11/19 06:52:06;;;;;;;1.38;0.90;;;;;;;25.27;41.65;94385.94;4962599;28;20053;-60
2022/11/19 06:54:32;;;;;;;1.27;0.70;;;;;;;25.17;41.33;94365.84;4960549;28;20661;-62
2022/11/19 06:56:59;;;;;;;2.05;0.80;;;;;;;25.22;41.55;94375.91;4959595;28;20848;-67
2022/11/19 06:59:25;;;;;;;1.60;0.90;;;;;;;25.30;41.54;94381.41;4956375;28;20099;-63
2022/11/19 07:01:51;;;;;;;1.17;0.77;;;;;;;25.27;40.95;94360.63;4960530;28;20060;-62
2022/11/19 07:04:16;;;;;;;1.40;0.70;;;;;;;25.01;41.30;94345.16;4958894;28;20063;-62
2022/11/19 07:06:42;;;;;;;1.80;0.70;;;;;;;24.50;41.47;94290.84;4958918;28;20176;-62
2022/11/19 07:09:08;;;;;;;1.63;0.80;;;;;;;25.45;40.78;94382.25;4955711;28;20037;-59
2022/11/19 07:11:34;;;;;;;1.30;0.70;;;;;;;25.16;41.66;94375.31;4936701;28;20092;-61
2022/11/19 07:14:02;;;;;;;2.10;0.90;;;;;;;25.00;41.61;94359.34;4957224;28;20701;-60
2022/11/19 07:16:33;;;;;;;1.70;0.90;;;;;;;25.16;41.36;94393.72;4920517;28;20536;-62
2022/11/19 07:19:03;;;;;;;1.30;0.77;;;;;;;25.34;41.29;94409.88;4936116;28;21011;-61
2022/11/19 07:21:29;;;;;;;2.40;0.90;;;;;;;24.46;41.71;94295.91;4939021;28;20134;-61
2022/11/19 07:23:56;;;;;;;1.90;1.00;;;;;;;24.32;41.23;94239.91;4940741;28;20383;-62
2022/11/19 07:26:22;;;;;;;1.67;0.93;;;;;;;25.18;41.50;94380.97;4961068;28;20106;-63
2022/11/19 07:28:47;;;;;;;1.90;0.90;;;;;;;25.31;41.12;94382.91;4959027;28;20554;-61
2022/11/19 07:31:13;;;;;;;1.17;0.70;;;;;;;25.32;41.33;94379.63;4957317;28;20056;-63
2022/11/19 07:33:38;;;;;;;1.70;0.93;;;;;;;25.18;41.57;94380.97;4938868;28;20078;-61
2022/11/19 07:36:06;;;;;;;2.55;0.90;;;;;;;25.04;41.58;94355.00;4934581;28;20037;-63
2022/11/19 07:38:32;;;;;;;3.38;0.90;;;;;;;25.08;41.59;94382.72;4938052;28;20041;-62
2022/11/19 07:40:58;;;;;;;1.10;0.70;;;;;;;24.94;41.71;94351.25;4954946;28;20061;-62
2022/11/19 07:43:23;;;;;;;1.23;0.70;;;;;;;25.56;40.60;94376.47;4955640;28;20053;-61
2022/11/19 07:45:49;;;;;;;1.42;0.80;;;;;;;25.61;40.45;94386.53;4958776;28;20148;-62
2022/11/19 07:48:15;;;;;;;1.25;0.80;;;;;;;24.20;41.32;94246.91;4955431;28;20515;-59
2022/11/19 07:50:40;;;;;;;1.73;0.90;;;;;;;25.37;41.20;94397.88;4955289;28;20631;-60
2022/11/19 07:53:07;;;;;;;1.40;0.75;;;;;;;25.12;41.84;94412.44;4956412;28;20247;-63
2022/11/19 07:55:32;;;;;;;1.98;1.02;;;;;;;25.11;41.43;94376.19;4930122;28;20762;-64
2022/11/19 07:57:58;;;;;;;1.80;0.90;;;;;;;25.24;40.91;94362.44;4915322;28;20051;-60
2022/11/19 08:00:23;;;;;;;1.30;0.70;;;;;;;25.24;41.45;94395.22;4953104;28;20982;-63
2022/11/19 08:02:49;;;;;;;1.42;0.80;;;;;;;25.09;41.69;94384.19;4953201;28;20058;-61
2022/11/19 08:05:15;;;;;;;1.30;0.77;;;;;;;25.45;40.90;94404.13;4952377;28;20065;-61
2022/11/19 08:07:41;;;;;;;1.45;0.80;;;;;;;25.40;41.02;94410.47;4952325;28;20316;-62
2022/11/19 08:10:07;;;;;;;1.35;0.90;;;;;;;25.17;41.59;94419.75;4951911;28;20563;-58
2022/11/19 08:12:33;;;;;;;1.65;0.80;;;;;;;25.20;41.37;94427.63;4954149;28;20037;-63
2022/11/19 08:14:59;;;;;;;1.35;0.73;;;;;;;25.37;40.84;94414.28;4952454;28;20668;-63
2022/11/19 08:20:09;;;;;;;1.70;1.00;;;;;;;25.48;40.84;94419.44;4951911;28;20738;-60
2022/11/19 08:22:35;;;;;;;1.80;1.00;;;;;;;25.23;41.40;94399.25;4947094;28;20703;-60
2022/11/19 08:25:02;;;;;;;1.55;0.88;;;;;;;25.07;41.15;94381.25;4953757;28;20085;-60
2022/11/19 08:27:28;;;;;;;1.83;1.10;;;;;;;25.74;40.42;94438.41;4928026;28;20032;-63
2022/11/19 08:29:53;;;;;;;2.53;1.30;;;;;;;25.51;40.89;94419.09;4951820;28;20053;-60
2022/11/19 08:32:19;;;;;;;1.95;1.10;;;;;;;24.38;40.86;94279.47;4952574;28;20907;-62
2022/11/19 08:34:44;;;;;;;2.78;0.75;;;;;;;25.55;40.93;94429.72;4951185;28;20041;-60
2022/11/19 08:37:12;;;;;;;1.65;0.95;;;;;;;25.55;40.84;94440.66;4951310;28;21282;-62
2022/11/19 08:39:39;;;;;;;2.40;0.75;;;;;;;25.49;40.95;94431.84;4945270;28;20059;-63
2022/11/19 08:44:50;;;;;;;1.83;1.15;;;;;;;25.19;41.16;94409.03;4951216;28;20171;-63
2022/11/19 08:47:15;;;;;;;2.13;0.88;;;;;;;25.47;40.71;94445.31;4929957;28;20087;-63
2022/11/19 08:49:41;;;;;;;2.42;0.95;;;;;;;25.33;41.08;94420.09;4952113;28;20041;-61
2022/11/19 08:52:06;;;;;;;2.83;0.95;;;;;;;25.23;40.95;94415.63;4952197;28;20770;-60
2022/11/19 08:54:32;;;;;;;1.13;0.82;;;;;;;25.47;40.92;94434.38;4930504;28;20548;-62
2022/11/19 08:56:58;;;;;;;2.25;1.20;;;;;;;25.60;40.68;94431.56;4950897;28;20363;-61
2022/11/19 08:59:24;;;;;;;2.00;0.90;;;;;;;24.75;40.57;94319.25;4956659;28;20143;-63
2022/11/19 09:01:50;;;;;;;2.03;1.10;;;;;;;25.53;40.59;94421.28;4933502;28;20638;-61
2022/11/19 09:04:15;;;;;;;2.03;1.05;;;;;;;25.68;40.10;94410.47;4955038;28;20091;-61
2022/11/19 09:06:41;;;;;;;2.17;1.05;;;;;;;25.62;40.42;94445.41;4948368;28;21538;-63
2022/11/19 09:09:07;;;;;;;1.50;0.95;;;;;;;25.64;40.46;94445.63;4929425;28;20730;-61
2022/11/19 09:11:33;;;;;;;1.90;1.08;;;;;;;25.61;40.36;94449.44;4935045;28;20063;-60
2022/11/19 09:13:59;;;;;;;2.97;1.15;;;;;;;25.60;40.87;94447.97;4933701;28;20060;-63
2022/11/19 09:16:25;;;;;;;2.03;0.88;;;;;;;25.76;40.41;94455.03;4954952;28;20049;-63
2022/11/19 09:18:51;;;;;;;1.63;0.90;;;;;;;25.91;40.18;94442.88;4953058;28;20052;-61
2022/11/19 09:21:17;;;;;;;1.90;1.00;;;;;;;25.51;40.75;94462.13;4952723;28;20520;-60
2022/11/19 09:23:42;;;;;;;1.42;0.80;;;;;;;25.77;40.57;94456.47;4949580;28;20055;-63
2022/11/19 09:26:11;;;;;;;1.63;1.00;;;;;;;25.36;40.51;94456.53;4954020;28;20048;-60
2022/11/19 09:28:37;;;;;;;1.83;1.00;;;;;;;26.21;39.58;94440.28;4929241;28;20154;-61
2022/11/19 09:31:10;;;;;;;2.20;1.30;;;;;;;25.77;39.97;94404.50;4950258;28;21008;-61
2022/11/19 09:33:37;;;;;;;1.90;1.20;;;;;;;26.17;39.45;94426.22;4910318;28;20268;-63
2022/11/19 09:36:02;;;;;;;1.90;1.02;;;;;;;25.89;40.25;94450.91;4933713;28;20430;-61
2022/11/19 09:38:30;;;;;;;1.90;1.00;;;;;;;25.87;40.06;94417.91;4953986;28;20219;-63
2022/11/19 09:40:56;;;;;;;2.13;1.23;;;;;;;26.08;39.78;94415.06;4950010;28;20053;-63
2022/11/19 09:43:36;;;;;;;2.45;0.90;;;;;;;25.87;40.15;94390.53;4951817;28;20612;-60
2022/11/19 09:46:08;;;;;;;2.03;1.10;;;;;;;26.29;39.35;94375.38;4929910;28;20045;-59
2022/11/19 09:48:36;;;;;;;2.05;1.10;;;;;;;25.53;39.09;94252.53;4936898;28;20037;-59
2022/11/19 09:51:07;;;;;;;2.30;1.20;;;;;;;26.44;39.25;94386.34;4956328;28;20095;-59
2022/11/19 09:53:47;;;;;;;2.00;0.95;;;;;;;26.34;39.53;94371.75;4931509;28;21744;-59
2022/11/19 09:56:16;;;;;;;2.00;1.25;;;;;;;26.42;39.38;94383.44;4957246;28;20504;-59
2022/11/19 09:58:42;;;;;;;1.95;0.98;;;;;;;26.40;39.51;94370.28;4958548;28;20552;-58
2022/11/19 10:01:16;;;;;;;1.30;0.70;;;;;;;26.43;39.42;94380.16;4964984;28;20262;-58
2022/11/19 10:03:45;;;;;;;2.00;0.98;;;;;;;26.24;39.72;94370.06;4958257;28;20824;-62
2022/11/19 10:06:14;;;;;;;;;;;;;;;26.68;38.96;94372.16;4959175;28;20083;-62
2022/11/19 10:08:54;;;;;;;1.73;0.90;;;;;;;26.01;39.75;94342.63;4955646;28;20499;-61
2022/11/19 10:11:35;;;;;;;3.17;1.30;;;;;;;26.26;39.67;94364.75;4953038;28;20041;-64
2022/11/19 10:14:19;;;;;;;2.20;1.10;;;;;;;26.27;39.76;94361.47;4954126;28;20053;-63
2022/11/19 10:17:18;;;;;;;1.60;1.00;;;;;;;26.09;39.63;94359.78;4953832;28;20358;-63
2022/11/19 10:19:46;;;;;;;2.33;1.08;;;;;;;26.34;39.50;94352.59;4953619;28;20106;-63
2022/11/19 10:22:14;;;;;;;2.10;1.00;;;;;;;26.28;39.53;94384.88;4951947;28;20702;-65
2022/11/19 10:24:43;;;;;;;1.83;1.00;;;;;;;26.29;39.58;94375.38;4949605;28;20527;-62
2022/11/19 10:27:46;;;;;;;2.00;1.17;;;;;;;26.20;39.75;94362.19;4948432;28;20546;-63
2022/11/19 10:30:23;;;;;;;2.22;1.20;;;;;;;26.27;39.78;94361.47;4947390;28;20814;-62
2022/11/19 10:32:59;;;;;;;2.08;0.90;;;;;;;26.64;39.42;94360.84;4950631;28;20334;-62
2022/11/19 10:35:45;;;;;;;2.40;0.90;;;;;;;26.49;39.58;94355.34;4951211;28;20994;-62
2022/11/19 10:38:23;;;;;;;1.40;0.82;;;;;;;26.72;39.38;94358.84;4950868;28;20170;-62
2022/11/19 10:41:00;;;;;;;2.00;1.25;;;;;;;26.47;39.47;94363.38;4914228;28;21071;-61
2022/11/19 10:43:33;;;;;;;2.60;1.10;;;;;;;25.75;39.27;94212.84;4929993;28;20703;-62
2022/11/19 10:45:59;;;;;;;1.95;1.00;;;;;;;26.31;39.08;94296.91;4931459;28;20084;-64
2022/11/19 10:48:42;;;;;;;2.03;1.00;;;;;;;25.86;39.33;94244.06;4928138;28;21632;-64
2022/11/19 10:51:13;;;;;;;1.52;0.90;;;;;;;26.56;39.14;94305.31;4953834;28;20037;-61
2022/11/19 10:53:38;;;;;;;1.35;0.82;;;;;;;26.05;39.02;94236.28;4933464;28;21607;-63
2022/11/19 10:56:12;;;;;;;1.98;1.10;;;;;;;26.61;39.10;94334.56;4931239;28;21455;-63
2022/11/19 10:59:00;;;;;;;1.77;1.00;;;;;;;26.16;39.75;94304.34;4953927;28;20969;-62
2022/11/19 11:01:31;;;;;;;1.85;1.00;;;;;;;26.54;39.59;94340.75;4950644;28;20413;-61
2022/11/19 11:04:10;;;;;;;2.15;1.15;;;;;;;26.50;39.58;94340.38;4950263;28;20564;-62
2022/11/19 11:06:52;;;;;;;2.22;1.13;;;;;;;26.02;38.73;94223.69;4947238;28;20082;-63
2022/11/19 11:09:31;;;;;;;2.38;1.00;;;;;;;26.76;39.14;94337.31;4955317;28;20155;-62
2022/11/19 11:15:20;;;;;;;1.77;0.80;;;;;;;26.77;39.12;94321.03;4960234;28;20107;-63
2022/11/19 11:17:46;;;;;;;1.67;0.90;;;;;;;26.80;39.31;94319.19;4960748;28;20084;-63
2022/11/19 11:20:16;;;;;;;1.85;0.80;;;;;;;26.73;39.25;94291.84;4937090;28;20052;-65
2022/11/19 11:22:42;;;;;;;2.20;1.10;;;;;;;26.68;38.74;94289.97;4960294;28;20064;-63
2022/11/19 11:25:27;;;;;;;1.85;1.15;;;;;;;27.31;38.48;94317.72;4933675;28;20062;-65
2022/11/19 11:28:05;;;;;;;2.20;0.80;;;;;;;26.71;39.19;94321.75;4956697;28;20076;-63
2022/11/19 11:30:31;;;;;;;2.17;0.90;;;;;;;26.89;38.90;94327.66;4953780;28;20178;-62
2022/11/19 11:32:57;;;;;;;1.58;1.00;;;;;;;26.64;39.57;94333.47;4955784;28;20033;-62
2022/11/19 11:35:31;;;;;;;1.85;0.90;;;;;;;26.81;39.13;94315.91;4953250;28;20053;-62
2022/11/19 11:37:58;;;;;;;2.03;0.98;;;;;;;26.75;38.52;94240.66;4937356;28;20234;-62
2022/11/19 11:40:23;;;;;;;1.90;1.10;;;;;;;27.04;38.50;94300.22;4932163;28;20057;-61
2022/11/19 11:42:50;;;;;;;1.83;0.80;;;;;;;26.83;38.64;94283.22;4953337;28;20903;-63
2022/11/19 11:45:28;;;;;;;2.35;1.00;;;;;;;26.86;38.78;94312.28;4937391;28;20075;-61
2022/11/19 11:47:53;;;;;;;1.65;1.00;;;;;;;26.88;39.28;94304.22;4955447;28;20533;-62
2022/11/19 11:50:26;;;;;;;2.40;1.20;;;;;;;26.69;39.05;94270.25;4938038;28;21512;-60
2022/11/19 11:52:52;;;;;;;1.98;1.00;;;;;;;27.18;38.71;94309.69;4934550;28;20052;-62
2022/11/19 11:55:24;;;;;;;2.28;1.00;;;;;;;27.02;38.89;94346.63;4917111;28;20191;-62
2022/11/19 11:58:03;;;;;;;1.63;1.10;;;;;;;26.97;39.08;94311.19;4957695;28;20045;-63
2022/11/19 12:00:38;;;;;;;1.83;1.00;;;;;;;26.69;38.78;94275.03;4961968;28;20045;-63
2022/11/19 12:03:20;;;;;;;1.67;0.90;;;;;;;25.85;38.68;94152.31;4938320;28;21185;-63
2022/11/19 12:06:04;;;;;;;1.70;0.98;;;;;;;26.44;39.87;94320.66;4958880;28;20448;-67